Flight Track Log - Related Links

Times and Time Zones

All times are in EDT time to prevent confusion due to time zone crossing. See the QXE64 flight status page for this flight to view local times or setup timezone preferences in your user account.

Time Position Orientation Groundspeed Altitude Reporting Facility
EDT Latitude Longitude Course Direction KTS MPH feet Rate Location/Type
Tue 08:04:32 PM 47.4392 -122.3083 153° Southeast 152 175 1,400  Level Seattle Center
Tue 08:05:14 PM 47.4117 -122.2875 101° East 166 191 2,800 2,054 Climbing Seattle Center
Tue 08:06:23 PM 47.4017 -122.2097 85° East 212 244 5,200 1,892 Climbing Seattle Center
Tue 08:07:24 PM 47.4089 -122.0919 85° East 259 298 6,900 1,525 Climbing Seattle Center
Tue 08:08:25 PM 47.4158 -121.9781 85° East 283 326 8,300 1,033 Climbing Seattle Center
Tue 08:09:26 PM 47.4219 -121.8625 84° East 287 330 9,000 1,574 Climbing Seattle Center
Tue 08:10:27 PM 47.4294 -121.7494 88° East 282 325 11,500 2,311 Climbing Seattle Center
Tue 08:11:28 PM 47.4314 -121.6403 93° East 275 316 13,700 1,672 Climbing Seattle Center
Tue 08:12:29 PM 47.4275 -121.5233 91° East 287 330 14,900 639 Climbing Seattle Center
Tue 08:13:30 PM 47.4256 -121.3897 92° East 333 383 15,000 98 Climbing Seattle Center
Tue 08:14:31 PM 47.4222 -121.2239 90° East 341 392 15,100 49 Climbing Seattle Center
Tue 08:15:32 PM 47.4214 -121.0881 92° East 336 387 15,100  Level Seattle Center
Tue 08:16:33 PM 47.4186 -120.9553 92° East 331 381 15,100 -49 Level Seattle Center
Tue 08:17:34 PM 47.4147 -120.8144 93° East 322 371 15,000 -49 Descending Seattle Center
Tue 08:18:35 PM 47.4103 -120.6878 92° East 313 360 15,000  Level Seattle Center
Tue 08:19:36 PM 47.4067 -120.5608 92° East 311 358 15,000  Level Seattle Center
Tue 08:20:37 PM 47.4044 -120.4403 92° East 300 345 15,000  Level Seattle Center
Tue 08:21:38 PM 47.4019 -120.3172 93° East 300 345 15,000 -344 Level Seattle Center
Tue 08:22:39 PM 47.3969 -120.1936 92° East 302 348 14,300 -1,131 Descending Seattle Center
Tue 08:23:40 PM 47.3944 -120.0739 93° East 296 341 12,700 -1,574 Descending Seattle Center
Tue 08:24:41 PM 47.3906 -119.9639 117° Southeast 271 312 11,100 -1,426 Descending Seattle Center
Tue 08:25:42 PM 47.3586 -119.8722 168° South 261 300 9,800 -1,328 Descending Seattle Center
Tue 08:26:43 PM 47.2947 -119.8519 216° Southwest 240 276 8,400 -1,328 Descending Seattle Center
Tue 08:27:44 PM 47.2419 -119.9094 270° West 247 284 7,100 -1,230 Descending Seattle Center
Tue 08:28:45 PM 47.2419 -119.9994 321° Northwest 225 259 5,900 -1,279 Descending Seattle Center
Tue 08:29:46 PM 47.2947 -120.0633 330° Northwest 198 228 4,500 -1,180 Descending Seattle Center
Tue 08:30:47 PM 47.3325 -120.0950 323° Northwest 164 189 3,500 -787 Descending Seattle Center
Tue 08:31:48 PM 47.3625 -120.1286 323° Northwest 137 158 2,900 -590 Descending Seattle Center

Login

Don't have an account? Register now (free) for customized features, flight alerts, and more!